sensor_id;sensor_type;location;lat;lon;timestamp;P1;durP1;ratioP1;P2;durP2;ratioP2
75073;SDS011;63652;51.526;5.080;2024-03-06T00:00:10;18.70;;;9.15;;
75073;SDS011;63652;51.526;5.080;2024-03-06T00:02:36;19.55;;;9.60;;
75073;SDS011;63652;51.526;5.080;2024-03-06T00:05:02;20.08;;;9.90;;
75073;SDS011;63652;51.526;5.080;2024-03-06T00:07:27;15.25;;;8.25;;
75073;SDS011;63652;51.526;5.080;2024-03-06T00:09:53;19.17;;;9.75;;
75073;SDS011;63652;51.526;5.080;2024-03-06T00:12:18;17.63;;;8.77;;
75073;SDS011;63652;51.526;5.080;2024-03-06T00:14:44;16.15;;;8.43;;
75073;SDS011;63652;51.526;5.080;2024-03-06T00:17:10;16.17;;;8.95;;
75073;SDS011;63652;51.526;5.080;2024-03-06T00:19:35;19.88;;;8.93;;
75073;SDS011;63652;51.526;5.080;2024-03-06T00:22:03;15.63;;;8.88;;
75073;SDS011;63652;51.526;5.080;2024-03-06T00:24:29;16.83;;;8.75;;
75073;SDS011;63652;51.526;5.080;2024-03-06T00:26:54;15.55;;;8.93;;
75073;SDS011;63652;51.526;5.080;2024-03-06T00:29:19;17.33;;;9.68;;
75073;SDS011;63652;51.526;5.080;2024-03-06T00:31:45;15.93;;;8.70;;
75073;SDS011;63652;51.526;5.080;2024-03-06T00:34:11;16.77;;;9.20;;
75073;SDS011;63652;51.526;5.080;2024-03-06T00:36:39;10.45;;;6.63;;
75073;SDS011;63652;51.526;5.080;2024-03-06T00:39:05;13.00;;;6.32;;
75073;SDS011;63652;51.526;5.080;2024-03-06T00:41:30;9.40;;;5.38;;
75073;SDS011;63652;51.526;5.080;2024-03-06T00:43:56;8.75;;;6.03;;
75073;SDS011;63652;51.526;5.080;2024-03-06T00:46:21;9.07;;;5.80;;
75073;SDS011;63652;51.526;5.080;2024-03-06T00:48:47;9.73;;;5.43;;
75073;SDS011;63652;51.526;5.080;2024-03-06T00:51:13;10.27;;;5.85;;
75073;SDS011;63652;51.526;5.080;2024-03-06T00:53:38;9.43;;;5.72;;
75073;SDS011;63652;51.526;5.080;2024-03-06T00:56:04;13.98;;;6.15;;
75073;SDS011;63652;51.526;5.080;2024-03-06T00:58:29;11.73;;;6.68;;
75073;SDS011;63652;51.526;5.080;2024-03-06T01:00:55;14.00;;;7.45;;
75073;SDS011;63652;51.526;5.080;2024-03-06T01:03:20;13.80;;;7.40;;
75073;SDS011;63652;51.526;5.080;2024-03-06T01:05:46;14.45;;;7.45;;
75073;SDS011;63652;51.526;5.080;2024-03-06T01:08:11;15.18;;;6.93;;
75073;SDS011;63652;51.526;5.080;2024-03-06T01:10:37;14.60;;;7.68;;
75073;SDS011;63652;51.526;5.080;2024-03-06T01:13:02;15.20;;;8.20;;
75073;SDS011;63652;51.526;5.080;2024-03-06T01:15:28;15.23;;;7.57;;
75073;SDS011;63652;51.526;5.080;2024-03-06T01:17:53;16.00;;;8.02;;
75073;SDS011;63652;51.526;5.080;2024-03-06T01:20:19;16.42;;;8.73;;
75073;SDS011;63652;51.526;5.080;2024-03-06T01:22:44;13.95;;;8.30;;
75073;SDS011;63652;51.526;5.080;2024-03-06T01:25:13;19.50;;;9.27;;
75073;SDS011;63652;51.526;5.080;2024-03-06T01:27:38;16.52;;;8.38;;
75073;SDS011;63652;51.526;5.080;2024-03-06T01:30:04;21.50;;;10.40;;
75073;SDS011;63652;51.526;5.080;2024-03-06T01:32:30;17.60;;;8.95;;
75073;SDS011;63652;51.526;5.080;2024-03-06T01:34:56;16.58;;;8.32;;
75073;SDS011;63652;51.526;5.080;2024-03-06T01:37:21;17.58;;;9.55;;
75073;SDS011;63652;51.526;5.080;2024-03-06T01:39:47;11.52;;;7.22;;
75073;SDS011;63652;51.526;5.080;2024-03-06T01:42:16;14.77;;;8.00;;
75073;SDS011;63652;51.526;5.080;2024-03-06T01:44:42;14.73;;;7.75;;
75073;SDS011;63652;51.526;5.080;2024-03-06T01:47:07;13.18;;;7.78;;
75073;SDS011;63652;51.526;5.080;2024-03-06T01:49:33;13.82;;;7.47;;
75073;SDS011;63652;51.526;5.080;2024-03-06T01:51:58;12.98;;;6.97;;
75073;SDS011;63652;51.526;5.080;2024-03-06T01:54:24;12.85;;;6.40;;
75073;SDS011;63652;51.526;5.080;2024-03-06T01:56:50;13.25;;;7.38;;
75073;SDS011;63652;51.526;5.080;2024-03-06T01:59:20;12.32;;;6.72;;
75073;SDS011;63652;51.526;5.080;2024-03-06T02:01:46;11.05;;;7.47;;
75073;SDS011;63652;51.526;5.080;2024-03-06T02:04:14;14.93;;;9.00;;
75073;SDS011;63652;51.526;5.080;2024-03-06T02:06:39;14.27;;;7.68;;
75073;SDS011;63652;51.526;5.080;2024-03-06T02:09:08;15.45;;;7.47;;
75073;SDS011;63652;51.526;5.080;2024-03-06T02:11:34;12.90;;;7.65;;
75073;SDS011;63652;51.526;5.080;2024-03-06T02:14:01;12.98;;;7.05;;
75073;SDS011;63652;51.526;5.080;2024-03-06T02:16:26;17.90;;;8.18;;
75073;SDS011;63652;51.526;5.080;2024-03-06T02:18:52;14.48;;;8.25;;
75073;SDS011;63652;51.526;5.080;2024-03-06T02:21:21;14.80;;;7.68;;
75073;SDS011;63652;51.526;5.080;2024-03-06T02:23:48;19.75;;;8.77;;
75073;SDS011;63652;51.526;5.080;2024-03-06T02:26:14;15.90;;;8.30;;
75073;SDS011;63652;51.526;5.080;2024-03-06T02:28:39;17.70;;;8.48;;
75073;SDS011;63652;51.526;5.080;2024-03-06T02:31:12;16.85;;;9.32;;
75073;SDS011;63652;51.526;5.080;2024-03-06T02:33:37;20.80;;;8.30;;
75073;SDS011;63652;51.526;5.080;2024-03-06T02:36:03;18.85;;;9.00;;
75073;SDS011;63652;51.526;5.080;2024-03-06T02:38:31;18.58;;;8.05;;
75073;SDS011;63652;51.526;5.080;2024-03-06T02:40:57;16.35;;;9.23;;
75073;SDS011;63652;51.526;5.080;2024-03-06T02:43:22;14.35;;;8.30;;
75073;SDS011;63652;51.526;5.080;2024-03-06T02:45:47;14.73;;;7.97;;
75073;SDS011;63652;51.526;5.080;2024-03-06T02:48:13;15.57;;;8.63;;
75073;SDS011;63652;51.526;5.080;2024-03-06T02:50:38;18.95;;;9.05;;
75073;SDS011;63652;51.526;5.080;2024-03-06T02:53:04;14.27;;;8.15;;
75073;SDS011;63652;51.526;5.080;2024-03-06T02:55:29;18.33;;;9.57;;
75073;SDS011;63652;51.526;5.080;2024-03-06T02:57:55;16.67;;;9.65;;
75073;SDS011;63652;51.526;5.080;2024-03-06T03:00:20;13.93;;;7.82;;
75073;SDS011;63652;51.526;5.080;2024-03-06T03:02:46;14.18;;;7.90;;
75073;SDS011;63652;51.526;5.080;2024-03-06T03:05:14;15.77;;;9.02;;
75073;SDS011;63652;51.526;5.080;2024-03-06T03:07:40;14.68;;;8.40;;
75073;SDS011;63652;51.526;5.080;2024-03-06T03:10:11;15.90;;;7.75;;
75073;SDS011;63652;51.526;5.080;2024-03-06T03:12:40;16.65;;;9.10;;
75073;SDS011;63652;51.526;5.080;2024-03-06T03:15:06;15.73;;;8.05;;
75073;SDS011;63652;51.526;5.080;2024-03-06T03:17:32;18.48;;;9.52;;
75073;SDS011;63652;51.526;5.080;2024-03-06T03:19:59;15.57;;;8.50;;
75073;SDS011;63652;51.526;5.080;2024-03-06T03:22:44;18.73;;;9.93;;
75073;SDS011;63652;51.526;5.080;2024-03-06T03:25:10;17.00;;;8.00;;
75073;SDS011;63652;51.526;5.080;2024-03-06T03:27:40;18.35;;;8.82;;
75073;SDS011;63652;51.526;5.080;2024-03-06T03:30:09;17.23;;;9.15;;
75073;SDS011;63652;51.526;5.080;2024-03-06T03:32:35;17.00;;;9.32;;
75073;SDS011;63652;51.526;5.080;2024-03-06T03:35:01;16.73;;;8.60;;
75073;SDS011;63652;51.526;5.080;2024-03-06T03:37:27;15.27;;;9.02;;
75073;SDS011;63652;51.526;5.080;2024-03-06T03:39:53;16.63;;;9.73;;
75073;SDS011;63652;51.526;5.080;2024-03-06T03:42:20;18.08;;;9.57;;
75073;SDS011;63652;51.526;5.080;2024-03-06T03:44:48;16.70;;;9.00;;
75073;SDS011;63652;51.526;5.080;2024-03-06T03:47:14;20.75;;;10.35;;
75073;SDS011;63652;51.526;5.080;2024-03-06T03:49:39;18.90;;;9.68;;
75073;SDS011;63652;51.526;5.080;2024-03-06T03:52:08;21.92;;;10.50;;
75073;SDS011;63652;51.526;5.080;2024-03-06T03:54:34;16.13;;;9.10;;
75073;SDS011;63652;51.526;5.080;2024-03-06T03:57:00;18.10;;;8.93;;
75073;SDS011;63652;51.526;5.080;2024-03-06T03:59:25;17.52;;;9.18;;
75073;SDS011;63652;51.526;5.080;2024-03-06T04:01:51;18.77;;;8.75;;
75073;SDS011;63652;51.526;5.080;2024-03-06T04:04:16;17.88;;;9.30;;
75073;SDS011;63652;51.526;5.080;2024-03-06T04:06:49;21.20;;;9.35;;
75073;SDS011;63652;51.526;5.080;2024-03-06T04:09:14;21.15;;;9.93;;
75073;SDS011;63652;51.526;5.080;2024-03-06T04:11:40;23.05;;;10.15;;
75073;SDS011;63652;51.526;5.080;2024-03-06T04:14:05;24.83;;;10.38;;
75073;SDS011;63652;51.526;5.080;2024-03-06T04:16:33;18.83;;;10.13;;
75073;SDS011;63652;51.526;5.080;2024-03-06T04:18:59;25.15;;;11.05;;
75073;SDS011;63652;51.526;5.080;2024-03-06T04:21:24;23.33;;;11.40;;
75073;SDS011;63652;51.526;5.080;2024-03-06T04:23:50;21.90;;;10.75;;
75073;SDS011;63652;51.526;5.080;2024-03-06T04:26:15;25.02;;;10.00;;
75073;SDS011;63652;51.526;5.080;2024-03-06T04:28:43;20.92;;;11.45;;
75073;SDS011;63652;51.526;5.080;2024-03-06T04:31:09;22.23;;;12.75;;
75073;SDS011;63652;51.526;5.080;2024-03-06T04:33:37;24.23;;;10.98;;
75073;SDS011;63652;51.526;5.080;2024-03-06T04:36:05;26.63;;;11.50;;
75073;SDS011;63652;51.526;5.080;2024-03-06T04:38:32;24.60;;;11.13;;
75073;SDS011;63652;51.526;5.080;2024-03-06T04:40:57;21.33;;;10.23;;
75073;SDS011;63652;51.526;5.080;2024-03-06T04:43:23;26.13;;;10.82;;
75073;SDS011;63652;51.526;5.080;2024-03-06T04:45:49;34.65;;;10.68;;
75073;SDS011;63652;51.526;5.080;2024-03-06T04:48:14;20.27;;;9.90;;
75073;SDS011;63652;51.526;5.080;2024-03-06T04:50:40;24.73;;;9.93;;
75073;SDS011;63652;51.526;5.080;2024-03-06T04:53:06;28.35;;;10.68;;
75073;SDS011;63652;51.526;5.080;2024-03-06T04:55:31;20.15;;;9.25;;
75073;SDS011;63652;51.526;5.080;2024-03-06T04:57:57;18.70;;;9.30;;
75073;SDS011;63652;51.526;5.080;2024-03-06T05:00:22;21.25;;;9.85;;
75073;SDS011;63652;51.526;5.080;2024-03-06T05:02:48;26.45;;;11.00;;
75073;SDS011;63652;51.526;5.080;2024-03-06T05:05:16;25.65;;;10.30;;
75073;SDS011;63652;51.526;5.080;2024-03-06T05:07:45;28.42;;;10.35;;
75073;SDS011;63652;51.526;5.080;2024-03-06T05:10:11;24.95;;;9.15;;
75073;SDS011;63652;51.526;5.080;2024-03-06T05:12:41;20.58;;;8.88;;
75073;SDS011;63652;51.526;5.080;2024-03-06T05:15:06;21.23;;;9.50;;
75073;SDS011;63652;51.526;5.080;2024-03-06T05:17:33;23.10;;;9.60;;
75073;SDS011;63652;51.526;5.080;2024-03-06T05:19:59;19.75;;;8.70;;
75073;SDS011;63652;51.526;5.080;2024-03-06T05:22:24;16.48;;;9.02;;
75073;SDS011;63652;51.526;5.080;2024-03-06T05:24:51;20.33;;;8.88;;
75073;SDS011;63652;51.526;5.080;2024-03-06T05:27:18;17.85;;;9.02;;
75073;SDS011;63652;51.526;5.080;2024-03-06T05:29:43;14.43;;;7.38;;
75073;SDS011;63652;51.526;5.080;2024-03-06T05:32:09;16.25;;;10.35;;
75073;SDS011;63652;51.526;5.080;2024-03-06T05:34:35;21.98;;;8.98;;
75073;SDS011;63652;51.526;5.080;2024-03-06T05:37:01;19.05;;;9.48;;
75073;SDS011;63652;51.526;5.080;2024-03-06T05:39:28;18.30;;;9.30;;
75073;SDS011;63652;51.526;5.080;2024-03-06T05:41:54;19.35;;;9.48;;
75073;SDS011;63652;51.526;5.080;2024-03-06T05:44:20;16.40;;;8.45;;
75073;SDS011;63652;51.526;5.080;2024-03-06T05:46:46;16.63;;;8.45;;
75073;SDS011;63652;51.526;5.080;2024-03-06T05:49:12;15.43;;;7.93;;
75073;SDS011;63652;51.526;5.080;2024-03-06T05:51:39;14.55;;;8.02;;
75073;SDS011;63652;51.526;5.080;2024-03-06T05:54:07;14.38;;;7.57;;
75073;SDS011;63652;51.526;5.080;2024-03-06T05:56:35;15.35;;;7.43;;
75073;SDS011;63652;51.526;5.080;2024-03-06T05:59:00;12.00;;;7.35;;
75073;SDS011;63652;51.526;5.080;2024-03-06T06:01:30;17.02;;;7.75;;
75073;SDS011;63652;51.526;5.080;2024-03-06T06:03:55;12.82;;;7.57;;
75073;SDS011;63652;51.526;5.080;2024-03-06T06:06:21;21.15;;;8.18;;
75073;SDS011;63652;51.526;5.080;2024-03-06T06:08:47;15.77;;;7.38;;
75073;SDS011;63652;51.526;5.080;2024-03-06T06:11:13;18.85;;;7.05;;
75073;SDS011;63652;51.526;5.080;2024-03-06T06:13:38;14.50;;;6.82;;
75073;SDS011;63652;51.526;5.080;2024-03-06T06:16:07;14.80;;;7.82;;
75073;SDS011;63652;51.526;5.080;2024-03-06T06:18:32;17.63;;;7.93;;
75073;SDS011;63652;51.526;5.080;2024-03-06T06:20:58;13.68;;;7.50;;
75073;SDS011;63652;51.526;5.080;2024-03-06T06:23:26;14.50;;;7.80;;
75073;SDS011;63652;51.526;5.080;2024-03-06T06:25:54;15.32;;;7.25;;
75073;SDS011;63652;51.526;5.080;2024-03-06T06:28:19;15.48;;;7.85;;
75073;SDS011;63652;51.526;5.080;2024-03-06T06:30:45;13.75;;;6.63;;
75073;SDS011;63652;51.526;5.080;2024-03-06T06:33:10;14.50;;;6.63;;
75073;SDS011;63652;51.526;5.080;2024-03-06T06:35:38;20.60;;;7.07;;
75073;SDS011;63652;51.526;5.080;2024-03-06T06:38:03;16.42;;;6.05;;
75073;SDS011;63652;51.526;5.080;2024-03-06T06:40:30;12.98;;;6.65;;
75073;SDS011;63652;51.526;5.080;2024-03-06T06:42:55;11.75;;;5.85;;
75073;SDS011;63652;51.526;5.080;2024-03-06T06:45:21;10.43;;;6.18;;
75073;SDS011;63652;51.526;5.080;2024-03-06T06:47:49;12.40;;;6.43;;
75073;SDS011;63652;51.526;5.080;2024-03-06T06:50:16;11.70;;;6.43;;
75073;SDS011;63652;51.526;5.080;2024-03-06T06:52:41;11.43;;;6.75;;
75073;SDS011;63652;51.526;5.080;2024-03-06T06:55:07;10.30;;;6.45;;
75073;SDS011;63652;51.526;5.080;2024-03-06T06:57:36;11.20;;;5.47;;
75073;SDS011;63652;51.526;5.080;2024-03-06T07:00:02;10.00;;;6.40;;
75073;SDS011;63652;51.526;5.080;2024-03-06T07:02:36;11.95;;;7.38;;
75073;SDS011;63652;51.526;5.080;2024-03-06T07:05:02;10.30;;;6.18;;
75073;SDS011;63652;51.526;5.080;2024-03-06T07:07:29;12.70;;;7.35;;
75073;SDS011;63652;51.526;5.080;2024-03-06T07:09:55;13.40;;;7.32;;
75073;SDS011;63652;51.526;5.080;2024-03-06T07:12:20;12.75;;;8.10;;
75073;SDS011;63652;51.526;5.080;2024-03-06T07:14:46;13.30;;;7.25;;
75073;SDS011;63652;51.526;5.080;2024-03-06T07:17:12;13.68;;;6.55;;
75073;SDS011;63652;51.526;5.080;2024-03-06T07:19:37;11.15;;;7.65;;
75073;SDS011;63652;51.526;5.080;2024-03-06T07:22:04;13.52;;;7.60;;
75073;SDS011;63652;51.526;5.080;2024-03-06T07:24:32;14.27;;;7.95;;
75073;SDS011;63652;51.526;5.080;2024-03-06T07:27:01;14.38;;;7.70;;
75073;SDS011;63652;51.526;5.080;2024-03-06T07:29:27;12.40;;;8.18;;
75073;SDS011;63652;51.526;5.080;2024-03-06T07:31:53;15.65;;;8.93;;
75073;SDS011;63652;51.526;5.080;2024-03-06T07:34:21;16.42;;;9.15;;
75073;SDS011;63652;51.526;5.080;2024-03-06T07:36:46;16.13;;;8.95;;
75073;SDS011;63652;51.526;5.080;2024-03-06T07:39:12;14.48;;;8.20;;
75073;SDS011;63652;51.526;5.080;2024-03-06T07:41:40;13.98;;;9.23;;
75073;SDS011;63652;51.526;5.080;2024-03-06T07:44:05;19.67;;;11.55;;
75073;SDS011;63652;51.526;5.080;2024-03-06T07:46:31;17.88;;;9.05;;
75073;SDS011;63652;51.526;5.080;2024-03-06T07:48:56;20.73;;;9.95;;
75073;SDS011;63652;51.526;5.080;2024-03-06T07:51:22;18.33;;;10.57;;
75073;SDS011;63652;51.526;5.080;2024-03-06T07:53:48;16.90;;;10.02;;
75073;SDS011;63652;51.526;5.080;2024-03-06T07:56:15;19.50;;;10.52;;
75073;SDS011;63652;51.526;5.080;2024-03-06T07:58:48;18.45;;;9.73;;
75073;SDS011;63652;51.526;5.080;2024-03-06T08:01:13;18.60;;;11.18;;
75073;SDS011;63652;51.526;5.080;2024-03-06T08:03:39;21.00;;;10.98;;
75073;SDS011;63652;51.526;5.080;2024-03-06T08:06:05;19.05;;;10.43;;
75073;SDS011;63652;51.526;5.080;2024-03-06T08:08:31;23.35;;;12.23;;
75073;SDS011;63652;51.526;5.080;2024-03-06T08:10:56;26.75;;;12.05;;
75073;SDS011;63652;51.526;5.080;2024-03-06T08:13:22;20.50;;;12.48;;
75073;SDS011;63652;51.526;5.080;2024-03-06T08:15:48;21.98;;;12.32;;
75073;SDS011;63652;51.526;5.080;2024-03-06T08:18:13;19.75;;;11.70;;
75073;SDS011;63652;51.526;5.080;2024-03-06T08:20:40;19.70;;;10.63;;
75073;SDS011;63652;51.526;5.080;2024-03-06T08:23:07;21.85;;;12.15;;
75073;SDS011;63652;51.526;5.080;2024-03-06T08:25:32;18.45;;;11.75;;
75073;SDS011;63652;51.526;5.080;2024-03-06T08:27:58;19.50;;;11.20;;
75073;SDS011;63652;51.526;5.080;2024-03-06T08:30:24;23.58;;;11.85;;
75073;SDS011;63652;51.526;5.080;2024-03-06T08:32:50;20.45;;;12.05;;
75073;SDS011;63652;51.526;5.080;2024-03-06T08:35:16;21.58;;;12.07;;
75073;SDS011;63652;51.526;5.080;2024-03-06T08:37:43;22.98;;;13.57;;
75073;SDS011;63652;51.526;5.080;2024-03-06T08:40:09;24.58;;;12.93;;
75073;SDS011;63652;51.526;5.080;2024-03-06T08:42:42;25.88;;;14.80;;
75073;SDS011;63652;51.526;5.080;2024-03-06T08:45:12;23.98;;;14.02;;
75073;SDS011;63652;51.526;5.080;2024-03-06T08:47:39;23.75;;;14.05;;
75073;SDS011;63652;51.526;5.080;2024-03-06T08:50:05;23.67;;;13.40;;
75073;SDS011;63652;51.526;5.080;2024-03-06T08:52:32;18.20;;;12.48;;
75073;SDS011;63652;51.526;5.080;2024-03-06T08:54:59;24.08;;;12.63;;
75073;SDS011;63652;51.526;5.080;2024-03-06T08:57:25;21.85;;;12.38;;
75073;SDS011;63652;51.526;5.080;2024-03-06T08:59:53;20.67;;;12.65;;
75073;SDS011;63652;51.526;5.080;2024-03-06T09:02:21;20.13;;;11.90;;
75073;SDS011;63652;51.526;5.080;2024-03-06T09:04:46;20.60;;;11.07;;
75073;SDS011;63652;51.526;5.080;2024-03-06T09:07:12;20.17;;;12.35;;
75073;SDS011;63652;51.526;5.080;2024-03-06T09:09:38;25.25;;;11.32;;
75073;SDS011;63652;51.526;5.080;2024-03-06T09:12:04;21.77;;;11.93;;
75073;SDS011;63652;51.526;5.080;2024-03-06T09:14:35;22.40;;;10.60;;
75073;SDS011;63652;51.526;5.080;2024-03-06T09:17:06;20.77;;;10.25;;
75073;SDS011;63652;51.526;5.080;2024-03-06T09:19:34;18.05;;;10.88;;
75073;SDS011;63652;51.526;5.080;2024-03-06T09:22:00;21.60;;;12.10;;
75073;SDS011;63652;51.526;5.080;2024-03-06T09:24:25;23.35;;;12.38;;
75073;SDS011;63652;51.526;5.080;2024-03-06T09:26:51;18.40;;;10.88;;
75073;SDS011;63652;51.526;5.080;2024-03-06T09:29:17;17.70;;;10.32;;
75073;SDS011;63652;51.526;5.080;2024-03-06T09:31:50;18.83;;;9.85;;
75073;SDS011;63652;51.526;5.080;2024-03-06T09:34:16;20.42;;;11.02;;
75073;SDS011;63652;51.526;5.080;2024-03-06T09:36:42;17.80;;;11.15;;
75073;SDS011;63652;51.526;5.080;2024-03-06T09:39:11;18.35;;;11.23;;
75073;SDS011;63652;51.526;5.080;2024-03-06T09:41:37;16.95;;;8.90;;
75073;SDS011;63652;51.526;5.080;2024-03-06T09:44:06;17.33;;;8.85;;
75073;SDS011;63652;51.526;5.080;2024-03-06T09:46:32;18.85;;;8.23;;
75073;SDS011;63652;51.526;5.080;2024-03-06T09:48:59;15.35;;;9.15;;
75073;SDS011;63652;51.526;5.080;2024-03-06T09:51:26;15.45;;;7.60;;
75073;SDS011;63652;51.526;5.080;2024-03-06T09:53:52;13.43;;;8.13;;
75073;SDS011;63652;51.526;5.080;2024-03-06T09:56:18;16.52;;;8.35;;
75073;SDS011;63652;51.526;5.080;2024-03-06T09:58:44;12.73;;;6.88;;
75073;SDS011;63652;51.526;5.080;2024-03-06T10:01:09;11.23;;;7.10;;
75073;SDS011;63652;51.526;5.080;2024-03-06T10:03:37;15.30;;;8.20;;
75073;SDS011;63652;51.526;5.080;2024-03-06T10:06:02;14.13;;;7.50;;
75073;SDS011;63652;51.526;5.080;2024-03-06T10:08:28;12.07;;;7.82;;
75073;SDS011;63652;51.526;5.080;2024-03-06T10:10:53;12.05;;;7.35;;
75073;SDS011;63652;51.526;5.080;2024-03-06T10:13:25;15.30;;;7.32;;
75073;SDS011;63652;51.526;5.080;2024-03-06T10:15:57;12.38;;;6.22;;
75073;SDS011;63652;51.526;5.080;2024-03-06T10:18:26;9.73;;;6.97;;
75073;SDS011;63652;51.526;5.080;2024-03-06T10:20:53;12.23;;;7.28;;
75073;SDS011;63652;51.526;5.080;2024-03-06T10:23:19;16.00;;;8.60;;
75073;SDS011;63652;51.526;5.080;2024-03-06T10:25:44;16.40;;;7.40;;
75073;SDS011;63652;51.526;5.080;2024-03-06T10:28:14;14.18;;;7.28;;
75073;SDS011;63652;51.526;5.080;2024-03-06T10:30:42;15.85;;;6.95;;
75073;SDS011;63652;51.526;5.080;2024-03-06T10:33:08;12.73;;;7.25;;
75073;SDS011;63652;51.526;5.080;2024-03-06T10:35:35;15.77;;;6.38;;
75073;SDS011;63652;51.526;5.080;2024-03-06T10:38:03;10.45;;;5.53;;
75073;SDS011;63652;51.526;5.080;2024-03-06T10:40:32;13.00;;;6.55;;
75073;SDS011;63652;51.526;5.080;2024-03-06T10:42:59;11.80;;;6.50;;
75073;SDS011;63652;51.526;5.080;2024-03-06T10:46:13;12.57;;;6.50;;
75073;SDS011;63652;51.526;5.080;2024-03-06T10:48:37;12.30;;;7.28;;
75073;SDS011;63652;51.526;5.080;2024-03-06T10:51:03;9.80;;;5.95;;
75073;SDS011;63652;51.526;5.080;2024-03-06T10:53:29;13.35;;;6.57;;
75073;SDS011;63652;51.526;5.080;2024-03-06T10:55:55;10.07;;;6.20;;
75073;SDS011;63652;51.526;5.080;2024-03-06T10:58:22;10.68;;;5.93;;
75073;SDS011;63652;51.526;5.080;2024-03-06T11:00:48;10.38;;;5.90;;
75073;SDS011;63652;51.526;5.080;2024-03-06T11:03:14;11.77;;;5.93;;
75073;SDS011;63652;51.526;5.080;2024-03-06T11:05:41;13.65;;;6.60;;
75073;SDS011;63652;51.526;5.080;2024-03-06T11:08:08;11.20;;;7.03;;
75073;SDS011;63652;51.526;5.080;2024-03-06T11:10:35;12.02;;;6.60;;
75073;SDS011;63652;51.526;5.080;2024-03-06T11:13:02;10.38;;;6.68;;
75073;SDS011;63652;51.526;5.080;2024-03-06T11:15:29;15.32;;;6.75;;
75073;SDS011;63652;51.526;5.080;2024-03-06T11:17:55;14.75;;;7.13;;
75073;SDS011;63652;51.526;5.080;2024-03-06T11:20:21;9.85;;;6.20;;
75073;SDS011;63652;51.526;5.080;2024-03-06T11:26:08;10.63;;;6.25;;
75073;SDS011;63652;51.526;5.080;2024-03-06T11:28:24;9.13;;;5.82;;
75073;SDS011;63652;51.526;5.080;2024-03-06T11:33:43;7.43;;;3.97;;
75073;SDS011;63652;51.526;5.080;2024-03-06T11:36:19;9.80;;;4.93;;
75073;SDS011;63652;51.526;5.080;2024-03-06T11:39:05;8.25;;;3.60;;
75073;SDS011;63652;51.526;5.080;2024-03-06T11:44:00;7.25;;;4.00;;
75073;SDS011;63652;51.526;5.080;2024-03-06T11:49:20;6.78;;;2.80;;
75073;SDS011;63652;51.526;5.080;2024-03-06T11:51:47;6.70;;;4.07;;
75073;SDS011;63652;51.526;5.080;2024-03-06T11:54:13;6.70;;;4.07;;
75073;SDS011;63652;51.526;5.080;2024-03-06T11:56:39;6.25;;;3.55;;
75073;SDS011;63652;51.526;5.080;2024-03-06T11:59:05;7.47;;;4.05;;
75073;SDS011;63652;51.526;5.080;2024-03-06T12:01:37;8.23;;;4.13;;
75073;SDS011;63652;51.526;5.080;2024-03-06T12:04:02;6.10;;;3.30;;
75073;SDS011;63652;51.526;5.080;2024-03-06T12:06:32;8.13;;;2.90;;
75073;SDS011;63652;51.526;5.080;2024-03-06T12:08:57;5.70;;;3.22;;
75073;SDS011;63652;51.526;5.080;2024-03-06T12:11:23;6.38;;;2.78;;
75073;SDS011;63652;51.526;5.080;2024-03-06T12:13:50;6.70;;;3.40;;
75073;SDS011;63652;51.526;5.080;2024-03-06T12:16:16;5.47;;;2.53;;
75073;SDS011;63652;51.526;5.080;2024-03-06T12:18:42;7.70;;;2.55;;
75073;SDS011;63652;51.526;5.080;2024-03-06T12:21:07;3.85;;;2.03;;
75073;SDS011;63652;51.526;5.080;2024-03-06T12:23:35;4.65;;;2.10;;
75073;SDS011;63652;51.526;5.080;2024-03-06T12:26:08;3.25;;;1.60;;
75073;SDS011;63652;51.526;5.080;2024-03-06T12:28:37;3.58;;;1.90;;
75073;SDS011;63652;51.526;5.080;2024-03-06T12:31:03;4.78;;;2.28;;
75073;SDS011;63652;51.526;5.080;2024-03-06T12:33:29;3.78;;;2.17;;
75073;SDS011;63652;51.526;5.080;2024-03-06T12:36:14;4.25;;;2.05;;
75073;SDS011;63652;51.526;5.080;2024-03-06T12:38:39;5.43;;;3.15;;
75073;SDS011;63652;51.526;5.080;2024-03-06T12:41:05;5.72;;;3.20;;
75073;SDS011;63652;51.526;5.080;2024-03-06T12:43:31;5.53;;;3.13;;
75073;SDS011;63652;51.526;5.080;2024-03-06T12:45:56;5.50;;;3.50;;
75073;SDS011;63652;51.526;5.080;2024-03-06T12:48:22;4.38;;;2.65;;
75073;SDS011;63652;51.526;5.080;2024-03-06T12:50:48;5.00;;;2.60;;
75073;SDS011;63652;51.526;5.080;2024-03-06T12:53:18;6.22;;;3.78;;
75073;SDS011;63652;51.526;5.080;2024-03-06T12:55:44;5.25;;;2.70;;
75073;SDS011;63652;51.526;5.080;2024-03-06T12:58:13;5.82;;;3.60;;
75073;SDS011;63652;51.526;5.080;2024-03-06T13:00:40;6.55;;;3.08;;
75073;SDS011;63652;51.526;5.080;2024-03-06T13:03:09;6.40;;;3.15;;
75073;SDS011;63652;51.526;5.080;2024-03-06T13:05:43;6.05;;;3.63;;
75073;SDS011;63652;51.526;5.080;2024-03-06T13:08:17;5.90;;;3.17;;
75073;SDS011;63652;51.526;5.080;2024-03-06T13:10:45;6.32;;;3.60;;
75073;SDS011;63652;51.526;5.080;2024-03-06T13:13:11;6.75;;;3.10;;
75073;SDS011;63652;51.526;5.080;2024-03-06T13:15:39;5.72;;;2.90;;
75073;SDS011;63652;51.526;5.080;2024-03-06T13:18:09;5.93;;;3.60;;
75073;SDS011;63652;51.526;5.080;2024-03-06T13:20:39;5.35;;;3.20;;
75073;SDS011;63652;51.526;5.080;2024-03-06T13:23:10;5.55;;;3.40;;
75073;SDS011;63652;51.526;5.080;2024-03-06T13:25:43;4.07;;;2.60;;
75073;SDS011;63652;51.526;5.080;2024-03-06T13:28:11;5.65;;;3.60;;
75073;SDS011;63652;51.526;5.080;2024-03-06T13:30:37;7.13;;;3.25;;
75073;SDS011;63652;51.526;5.080;2024-03-06T13:33:04;5.60;;;3.15;;
75073;SDS011;63652;51.526;5.080;2024-03-06T13:35:30;4.00;;;2.65;;
75073;SDS011;63652;51.526;5.080;2024-03-06T13:37:55;4.95;;;3.30;;
75073;SDS011;63652;51.526;5.080;2024-03-06T13:40:21;4.32;;;3.15;;
75073;SDS011;63652;51.526;5.080;2024-03-06T13:42:46;7.55;;;3.67;;
75073;SDS011;63652;51.526;5.080;2024-03-06T13:45:11;4.55;;;3.30;;
75073;SDS011;63652;51.526;5.080;2024-03-06T13:47:40;4.43;;;2.85;;
75073;SDS011;63652;51.526;5.080;2024-03-06T13:50:14;5.00;;;2.88;;
75073;SDS011;63652;51.526;5.080;2024-03-06T13:52:42;6.95;;;2.78;;
75073;SDS011;63652;51.526;5.080;2024-03-06T13:55:14;5.03;;;3.13;;
75073;SDS011;63652;51.526;5.080;2024-03-06T13:57:42;6.28;;;3.80;;
75073;SDS011;63652;51.526;5.080;2024-03-06T14:00:09;5.28;;;3.60;;
75073;SDS011;63652;51.526;5.080;2024-03-06T14:02:53;26.23;;;5.68;;
75073;SDS011;63652;51.526;5.080;2024-03-06T14:05:23;6.07;;;3.15;;
75073;SDS011;63652;51.526;5.080;2024-03-06T14:08:01;4.63;;;3.15;;
75073;SDS011;63652;51.526;5.080;2024-03-06T14:10:27;4.45;;;3.35;;
75073;SDS011;63652;51.526;5.080;2024-03-06T14:12:52;5.45;;;3.08;;
75073;SDS011;63652;51.526;5.080;2024-03-06T14:15:20;4.65;;;3.30;;
75073;SDS011;63652;51.526;5.080;2024-03-06T14:17:47;6.93;;;3.40;;
75073;SDS011;63652;51.526;5.080;2024-03-06T14:20:12;4.80;;;3.45;;
75073;SDS011;63652;51.526;5.080;2024-03-06T14:22:38;4.90;;;3.30;;
75073;SDS011;63652;51.526;5.080;2024-03-06T14:25:04;5.88;;;3.30;;
75073;SDS011;63652;51.526;5.080;2024-03-06T14:27:36;5.93;;;3.35;;
75073;SDS011;63652;51.526;5.080;2024-03-06T14:30:02;5.20;;;3.22;;
75073;SDS011;63652;51.526;5.080;2024-03-06T14:32:28;4.47;;;2.97;;
75073;SDS011;63652;51.526;5.080;2024-03-06T14:34:54;4.25;;;3.20;;
75073;SDS011;63652;51.526;5.080;2024-03-06T14:37:19;5.20;;;3.28;;
75073;SDS011;63652;51.526;5.080;2024-03-06T14:39:45;6.57;;;3.92;;
75073;SDS011;63652;51.526;5.080;2024-03-06T14:42:10;5.47;;;3.05;;
75073;SDS011;63652;51.526;5.080;2024-03-06T14:44:37;6.10;;;3.00;;